Time;durP1;ratioP1;P1;durP2;ratioP2;P2;SDS_P1;SDS_P2;PMS_P1;PMS_P2;Temp;Humidity;BMP_temperature;BMP_pressure;BME280_temperature;BME280_humidity;BME280_pressure;Samples;Min_cycle;Max_cycle;Signal;HPM_P1;HPM_P2
2023/04/06 00:01:22;;;;;;;39.53;35.47;;;3.40;99.90;;;;;;4987721;28;20500;-80
2023/04/06 00:03:47;;;;;;;42.80;38.78;;;3.50;99.90;;;;;;4969057;28;20421;-80
2023/04/06 00:06:13;;;;;;;37.20;34.03;;;3.40;99.90;;;;;;4992260;28;20092;-80
2023/04/06 00:08:38;;;;;;;37.08;33.97;;;3.50;99.90;;;;;;4992788;28;20041;-80
2023/04/06 00:11:04;;;;;;;44.70;40.95;;;3.50;99.90;;;;;;4989102;28;20128;-80
2023/04/06 00:13:29;;;;;;;48.25;43.33;;;3.30;99.90;;;;;;4962350;28;20065;-80
2023/04/06 00:15:55;;;;;;;31.98;29.13;;;3.20;99.90;;;;;;4968020;28;20508;-80
2023/04/06 00:18:21;;;;;;;35.97;32.65;;;3.10;99.90;;;;;;4977637;28;20450;-80
2023/04/06 00:20:46;;;;;;;32.45;29.80;;;3.00;99.90;;;;;;4990543;28;20449;-80
2023/04/06 00:23:12;;;;;;;32.83;29.52;;;3.10;99.90;;;;;;4974317;28;20506;-79
2023/04/06 00:25:37;;;;;;;33.00;29.77;;;3.10;99.90;;;;;;4965201;28;20030;-80
2023/04/06 00:28:03;;;;;;;59.70;53.55;;;3.10;99.90;;;;;;4992944;28;20042;-80
2023/04/06 00:30:29;;;;;;;38.45;34.65;;;3.20;99.90;;;;;;4991847;28;20068;-79
2023/04/06 00:32:54;;;;;;;41.35;37.22;;;3.20;99.90;;;;;;4974914;28;20037;-80
2023/04/06 00:35:20;;;;;;;40.58;37.10;;;3.20;99.90;;;;;;4974373;28;20042;-79
2023/04/06 00:37:47;;;;;;;31.02;28.25;;;3.10;99.90;;;;;;4956637;28;20058;-80
2023/04/06 00:40:14;;;;;;;36.67;33.40;;;3.10;99.90;;;;;;4976192;28;20615;-80
2023/04/06 00:42:40;;;;;;;36.28;32.60;;;3.20;99.90;;;;;;4976707;28;20111;-80
2023/04/06 00:45:06;;;;;;;32.17;29.45;;;3.10;99.90;;;;;;4989886;28;20152;-79
2023/04/06 00:47:33;;;;;;;40.95;37.28;;;3.10;99.90;;;;;;4966627;28;20494;-80
2023/04/06 00:49:59;;;;;;;34.65;31.80;;;2.90;99.90;;;;;;4958118;28;20133;-79
2023/04/06 00:52:25;;;;;;;59.25;53.78;;;3.00;99.90;;;;;;4974473;28;20562;-80
2023/04/06 00:54:51;;;;;;;37.35;33.90;;;3.00;99.90;;;;;;4957430;28;20517;-79
2023/04/06 00:57:17;;;;;;;38.33;35.13;;;3.70;99.90;;;;;;4984488;28;20472;-80
2023/04/06 00:59:43;;;;;;;37.40;34.25;;;3.10;99.90;;;;;;4973614;28;20067;-80
2023/04/06 01:02:09;;;;;;;43.80;40.00;;;3.00;99.90;;;;;;4971310;28;20125;-79
2023/04/06 01:04:35;;;;;;;52.53;47.75;;;2.90;99.90;;;;;;4974179;28;20486;-80
2023/04/06 01:07:01;;;;;;;39.78;36.33;;;2.90;99.90;;;;;;4971719;28;20124;-80
2023/04/06 01:09:30;;;;;;;40.60;37.45;;;2.90;99.90;;;;;;4992540;28;20076;-79
2023/04/06 01:11:57;;;;;;;53.30;48.47;;;2.80;99.90;;;;;;4977949;28;20449;-79
2023/04/06 01:14:23;;;;;;;46.67;42.38;;;2.80;99.90;;;;;;4974358;28;20048;-79
2023/04/06 01:16:49;;;;;;;48.05;44.05;;;2.70;99.90;;;;;;4986817;28;20087;-80
2023/04/06 01:19:14;;;;;;;39.40;36.05;;;2.60;99.90;;;;;;4992401;28;20515;-80
2023/04/06 01:21:41;;;;;;;29.17;26.63;;;2.60;1.00;;;;;;4963587;28;20046;-79
2023/04/06 01:24:08;;;;;;;39.90;36.22;;;2.80;1.00;;;;;;4981125;28;20046;-80
2023/04/06 01:26:34;;;;;;;37.70;34.22;;;2.80;1.00;;;;;;4986789;28;20042;-79
2023/04/06 01:29:00;;;;;;;38.78;34.95;;;2.60;1.00;;;;;;4972876;28;20042;-80
2023/04/06 01:31:27;;;;;;;38.47;34.95;;;2.60;1.00;;;;;;4980751;28;20038;-80
2023/04/06 01:33:53;;;;;;;53.47;44.78;;;2.70;1.00;;;;;;4985730;28;20084;-80
2023/04/06 01:36:19;;;;;;;38.92;35.40;;;2.50;34.50;;;;;;4976913;28;20068;-80
2023/04/06 01:38:45;;;;;;;29.52;26.95;;;2.50;81.50;;;;;;4972717;28;20054;-80
2023/04/06 01:41:11;;;;;;;39.45;35.83;;;2.40;99.90;;;;;;4979376;28;20048;-80
2023/04/06 01:43:36;;;;;;;35.10;31.33;;;4.00;99.90;;;;;;4988435;28;20039;-80
2023/04/06 01:46:03;;;;;;;32.17;29.42;;;2.60;99.90;;;;;;4982111;28;20064;-80
2023/04/06 01:48:29;;;;;;;44.42;40.42;;;2.60;99.90;;;;;;4976923;28;20480;-80
2023/04/06 01:50:55;;;;;;;41.70;37.80;;;2.40;99.90;;;;;;4989099;28;20125;-80
2023/04/06 01:53:21;;;;;;;32.67;29.58;;;2.30;99.90;;;;;;4976518;28;20502;-80
2023/04/06 01:55:46;;;;;;;42.88;38.50;;;2.20;1.00;;;;;;4980526;28;20038;-80
2023/04/06 01:58:13;;;;;;;37.00;33.42;;;2.20;1.00;;;;;;4995668;28;20456;-79
2023/04/06 02:00:39;;;;;;;35.72;32.63;;;2.20;1.00;;;;;;4991552;28;20108;-80
2023/04/06 02:03:05;;;;;;;31.38;28.55;;;2.30;40.80;;;;;;4960354;28;20521;-80
2023/04/06 02:05:33;;;;;;;33.67;30.02;;;2.30;99.90;;;;;;4977456;28;20088;-79
2023/04/06 02:07:58;;;;;;;29.55;26.83;;;2.50;99.90;;;;;;4980058;28;20038;-79
2023/04/06 02:10:24;;;;;;;33.47;30.40;;;2.20;99.90;;;;;;4978976;28;20104;-80
2023/04/06 02:12:50;;;;;;;43.92;34.80;;;2.20;99.90;;;;;;4977736;28;20038;-79
2023/04/06 02:15:15;;;;;;;47.40;43.00;;;2.40;1.00;;;;;;4976163;28;20505;-80
2023/04/06 02:17:42;;;;;;;48.03;43.78;;;2.50;1.00;;;;;;4977617;28;20073;-80
2023/04/06 02:20:08;;;;;;;36.63;33.00;;;2.30;1.00;;;;;;4993973;28;20045;-80
2023/04/06 02:22:35;;;;;;;35.97;30.98;;;2.40;23.50;;;;;;4976286;28;20046;-80
2023/04/06 02:25:01;;;;;;;49.33;44.65;;;2.30;78.60;;;;;;4976025;28;20038;-80
2023/04/06 02:27:26;;;;;;;37.00;33.65;;;2.20;99.90;;;;;;4982037;28;20109;-80
2023/04/06 02:29:52;;;;;;;31.55;28.65;;;2.20;99.90;;;;;;4960367;28;20081;-80
2023/04/06 02:32:17;;;;;;;35.20;31.90;;;2.10;99.90;;;;;;4994126;28;20046;-80
2023/04/06 02:34:43;;;;;;;51.20;46.20;;;2.00;99.90;;;;;;4995311;28;20089;-80
2023/04/06 02:37:09;;;;;;;38.10;34.67;;;2.10;1.00;;;;;;4986587;28;20116;-80
2023/04/06 02:39:34;;;;;;;35.75;32.17;;;2.10;1.00;;;;;;4959790;28;20125;-80
2023/04/06 02:42:00;;;;;;;46.78;42.15;;;2.00;1.00;;;;;;4988581;28;20103;-80
2023/04/06 02:44:25;;;;;;;41.40;37.25;;;1.90;1.00;;;;;;4980720;28;20077;-80
2023/04/06 02:46:51;;;;;;;33.40;30.25;;;2.20;35.10;;;;;;4984451;28;20494;-80
2023/04/06 02:49:16;;;;;;;30.52;27.55;;;2.20;99.90;;;;;;4995235;28;20560;-80
2023/04/06 02:51:42;;;;;;;50.78;45.60;;;2.30;99.90;;;;;;4997735;28;20037;-79
2023/04/06 02:54:08;;;;;;;35.25;31.92;;;2.30;99.90;;;;;;4993783;28;20050;-79
2023/04/06 02:56:33;;;;;;;26.55;23.88;;;2.10;1.00;;;;;;4994132;28;20041;-80
2023/04/06 02:58:59;;;;;;;34.60;31.25;;;2.20;1.00;;;;;;4979107;28;20444;-80
2023/04/06 03:01:25;;;;;;;44.63;34.50;;;2.40;71.50;;;;;;4988743;28;20046;-80
2023/04/06 03:03:51;;;;;;;37.20;33.53;;;2.50;99.90;;;;;;4975558;28;20035;-80
2023/04/06 03:06:16;;;;;;;26.77;23.83;;;2.30;99.90;;;;;;4974025;28;20049;-80
2023/04/06 03:08:42;;;;;;;40.20;35.25;;;2.20;99.90;;;;;;4999379;28;20038;-80
2023/04/06 03:11:07;;;;;;;52.50;39.58;;;2.30;1.00;;;;;;4998896;28;20490;-80
2023/04/06 03:13:33;;;;;;;35.00;31.27;;;2.50;1.00;;;;;;4978573;28;20501;-80
2023/04/06 03:15:58;;;;;;;39.95;35.95;;;2.70;61.10;;;;;;4978088;28;20128;-80
2023/04/06 03:18:25;;;;;;;46.63;42.10;;;2.40;99.90;;;;;;4979577;28;20041;-80
2023/04/06 03:20:53;;;;;;;55.85;48.10;;;2.30;99.90;;;;;;4986514;28;20133;-80
2023/04/06 03:23:20;;;;;;;63.72;56.88;;;3.60;99.90;;;;;;4977915;28;20048;-80
2023/04/06 03:25:46;;;;;;;43.75;39.05;;;2.30;1.00;;;;;;4994512;28;20579;-79
2023/04/06 03:28:12;;;;;;;44.17;39.22;;;2.40;1.00;;;;;;4993976;28;20038;-79
2023/04/06 03:30:37;;;;;;;40.53;36.33;;;2.80;1.00;;;;;;4969888;28;20137;-80
2023/04/06 03:33:03;;;;;;;38.10;34.67;;;2.70;80.60;;;;;;4959209;28;20049;-79
2023/04/06 03:35:29;;;;;;;48.53;43.33;;;2.50;99.90;;;;;;4973777;28;20046;-80
2023/04/06 03:37:55;;;;;;;49.00;44.20;;;2.70;99.90;;;;;;4984266;28;20509;-80
2023/04/06 03:40:20;;;;;;;36.60;33.17;;;2.40;99.90;;;;;;4988785;28;20050;-80
2023/04/06 03:42:46;;;;;;;47.33;41.60;;;2.80;99.90;;;;;;4975213;28;20050;-79
2023/04/06 03:45:13;;;;;;;42.17;37.83;;;2.20;99.90;;;;;;4974543;28;20092;-80
2023/04/06 03:47:39;;;;;;;51.38;45.72;;;2.30;99.90;;;;;;4979074;28;20038;-80
2023/04/06 03:50:06;;;;;;;41.88;37.88;;;2.30;1.00;;;;;;4976747;28;20061;-80
2023/04/06 03:52:31;;;;;;;47.83;33.70;;;2.80;22.20;;;;;;4963237;28;20104;-80
2023/04/06 03:54:57;;;;;;;48.20;43.30;;;2.40;99.90;;;;;;4975638;28;20070;-80
2023/04/06 03:57:22;;;;;;;33.00;29.70;;;2.90;99.90;;;;;;4974419;28;20069;-80
2023/04/06 03:59:48;;;;;;;50.67;44.58;;;2.40;99.90;;;;;;4975100;28;20042;-80
2023/04/06 04:02:13;;;;;;;41.92;37.50;;;2.50;1.00;;;;;;4991552;28;20034;-80
2023/04/06 04:04:39;;;;;;;42.60;33.08;;;2.50;1.00;;;;;;4993916;28;20042;-80
2023/04/06 04:07:05;;;;;;;33.67;30.58;;;2.80;26.50;;;;;;4990961;28;20084;-80
2023/04/06 04:09:30;;;;;;;44.97;35.53;;;2.50;99.40;;;;;;4966725;28;20138;-80
2023/04/06 04:11:56;;;;;;;40.22;35.88;;;2.60;99.90;;;;;;4990818;28;20045;-80
2023/04/06 04:14:21;;;;;;;38.28;33.83;;;2.70;99.90;;;;;;4991858;28;20076;-80
2023/04/06 04:16:47;;;;;;;50.97;45.92;;;3.00;99.90;;;;;;4977041;28;20059;-80
2023/04/06 04:19:12;;;;;;;44.53;40.03;;;3.00;99.90;;;;;;4968237;28;20045;-80
2023/04/06 04:21:46;;;;;;;42.70;38.67;;;3.10;99.90;;;;;;4976811;28;20050;-80
2023/04/06 04:24:12;;;;;;;43.42;38.75;;;2.70;99.90;;;;;;4957761;28;20061;-79
2023/04/06 04:26:39;;;;;;;48.63;43.45;;;2.60;99.90;;;;;;4982835;28;20030;-80
2023/04/06 04:29:04;;;;;;;34.20;30.65;;;2.90;99.90;;;;;;4984518;28;20158;-79
2023/04/06 04:31:30;;;;;;;40.72;36.70;;;3.10;99.90;;;;;;4970639;28;20045;-80
2023/04/06 04:33:56;;;;;;;48.10;40.78;;;2.60;1.00;;;;;;4993450;28;20042;-80
2023/04/06 04:36:23;;;;;;;45.38;40.72;;;3.00;1.00;;;;;;4990090;28;20072;-80
2023/04/06 04:38:48;;;;;;;56.03;48.30;;;3.00;1.00;;;;;;4974318;28;20050;-80
2023/04/06 04:41:14;;;;;;;49.55;40.17;;;3.00;1.00;;;;;;4982055;28;20061;-80
2023/04/06 04:43:39;;;;;;;59.90;49.97;;;3.20;1.00;;;;;;4957566;28;20095;-80
2023/04/06 04:46:05;;;;;;;45.58;35.17;;;3.20;1.00;;;;;;4957613;28;20046;-80
2023/04/06 04:48:30;;;;;;;52.58;47.05;;;3.10;1.00;;;;;;4979929;28;20049;-80
2023/04/06 04:50:56;;;;;;;48.40;43.20;;;2.80;1.00;;;;;;4971881;28;20595;-80
2023/04/06 04:53:22;;;;;;;38.35;34.72;;;2.80;11.60;;;;;;4967798;28;20103;-80
2023/04/06 04:55:47;;;;;;;53.95;48.30;;;3.20;29.40;;;;;;4987749;28;20084;-80
2023/04/06 04:58:16;;;;;;;50.00;44.55;;;3.10;48.50;;;;;;4989322;28;20047;-80
2023/04/06 05:00:43;;;;;;;46.28;41.25;;;3.20;68.60;;;;;;4969640;28;20061;-80
2023/04/06 05:03:13;;;;;;;51.55;43.22;;;2.80;90.30;;;;;;4983827;28;20588;-80
2023/04/06 05:05:38;;;;;;;38.58;35.05;;;3.10;99.90;;;;;;4983603;28;20149;-80
2023/04/06 05:08:04;;;;;;;38.60;32.42;;;2.90;99.90;;;;;;4972762;28;20033;-80
2023/04/06 05:10:30;;;;;;;40.83;36.28;;;3.00;99.90;;;;;;4973321;28;20096;-80
2023/04/06 05:12:55;;;;;;;46.28;41.67;;;2.80;99.90;;;;;;4992612;28;20172;-80
2023/04/06 05:15:21;;;;;;;54.60;49.10;;;3.10;99.90;;;;;;4991694;28;20517;-79
2023/04/06 05:17:46;;;;;;;39.47;35.42;;;4.60;99.90;;;;;;4980388;28;20050;-80
2023/04/06 05:20:12;;;;;;;56.22;50.28;;;2.80;99.90;;;;;;4984451;28;20038;-80
2023/04/06 05:22:38;;;;;;;35.65;32.15;;;3.00;99.90;;;;;;4987152;28;20049;-80
2023/04/06 05:25:04;;;;;;;38.47;34.67;;;2.90;99.90;;;;;;4987181;28;20042;-80
2023/04/06 05:27:29;;;;;;;37.35;32.17;;;3.30;99.90;;;;;;4985729;28;20038;-80
2023/04/06 05:29:55;;;;;;;35.28;31.90;;;2.80;99.90;;;;;;4967251;28;20046;-80
2023/04/06 05:32:22;;;;;;;48.45;43.55;;;3.30;99.90;;;;;;4983998;28;20038;-80
2023/04/06 05:34:49;;;;;;;30.60;27.73;;;3.00;99.90;;;;;;4985080;28;20038;-80
2023/04/06 05:37:15;;;;;;;60.90;54.53;;;3.40;99.90;;;;;;4984350;28;20204;-80
2023/04/06 05:39:41;;;;;;;48.47;40.05;;;2.90;99.90;;;;;;4986608;28;20521;-80
2023/04/06 05:42:07;;;;;;;31.90;28.63;;;3.10;99.90;;;;;;4985273;28;20132;-80
2023/04/06 05:44:32;;;;;;;43.95;39.83;;;2.90;99.90;;;;;;4969517;28;20067;-80
2023/04/06 05:46:58;;;;;;;43.05;38.65;;;3.30;99.90;;;;;;4991212;28;20139;-80
2023/04/06 05:49:24;;;;;;;37.10;33.40;;;3.50;99.90;;;;;;4982916;28;20038;-80
2023/04/06 05:51:49;;;;;;;41.28;37.25;;;3.10;99.90;;;;;;4975947;28;20143;-80
2023/04/06 05:54:15;;;;;;;38.92;34.67;;;3.30;99.90;;;;;;4991163;28;20042;-80
2023/04/06 05:56:40;;;;;;;52.03;46.83;;;3.60;99.90;;;;;;4991098;28;20056;-80
2023/04/06 05:59:06;;;;;;;53.80;47.25;;;3.40;99.90;;;;;;4966273;28;20041;-80
2023/04/06 06:01:33;;;;;;;43.22;39.08;;;3.50;99.90;;;;;;4984734;28;20124;-79
2023/04/06 06:04:00;;;;;;;37.55;33.90;;;4.80;99.90;;;;;;4969164;28;20034;-80
2023/04/06 06:06:28;;;;;;;40.78;36.33;;;3.80;99.90;;;;;;4985917;28;20117;-79
2023/04/06 06:08:53;;;;;;;37.50;33.83;;;4.20;99.90;;;;;;4981069;28;20057;-80
2023/04/06 06:11:19;;;;;;;39.63;35.85;;;4.20;99.90;;;;;;4988190;28;20073;-80
2023/04/06 06:13:44;;;;;;;37.35;33.40;;;4.10;99.90;;;;;;4988854;28;20050;-80
2023/04/06 06:16:10;;;;;;;51.60;47.17;;;4.20;99.90;;;;;;4987148;28;20040;-80
2023/04/06 06:18:36;;;;;;;56.13;50.50;;;4.40;99.90;;;;;;4983128;28;20070;-80
2023/04/06 06:21:02;;;;;;;40.83;36.47;;;4.30;99.90;;;;;;4972392;28;20034;-80
2023/04/06 06:23:28;;;;;;;64.40;57.35;;;4.80;99.90;;;;;;4989794;28;20042;-80
2023/04/06 06:25:53;;;;;;;56.65;46.83;;;4.90;99.90;;;;;;4990026;28;20038;-79
2023/04/06 06:28:19;;;;;;;59.50;53.35;;;5.00;99.90;;;;;;4985901;28;20428;-80
2023/04/06 06:30:45;;;;;;;41.67;37.50;;;5.30;99.90;;;;;;4990904;28;20508;-80
2023/04/06 06:33:10;;;;;;;40.85;37.20;;;5.20;99.90;;;;;;4965589;28;20038;-79
2023/04/06 06:35:36;;;;;;;55.63;46.22;;;5.70;99.90;;;;;;4993333;28;20510;-79
2023/04/06 06:38:02;;;;;;;35.00;30.30;;;5.50;99.90;;;;;;4993613;28;20473;-80
2023/04/06 06:40:27;;;;;;;58.17;51.83;;;5.80;99.90;;;;;;4981615;28;20092;-79
2023/04/06 06:42:53;;;;;;;49.08;41.38;;;6.10;99.90;;;;;;4980304;28;20125;-81
2023/04/06 06:45:19;;;;;;;34.78;28.35;;;6.20;99.90;;;;;;4981646;28;20042;-81
2023/04/06 06:47:45;;;;;;;46.63;42.17;;;5.90;99.90;;;;;;4974413;28;20041;-81
2023/04/06 06:50:11;;;;;;;38.28;34.55;;;6.00;1.00;;;;;;4994397;28;20588;-81
2023/04/06 06:52:36;;;;;;;39.00;35.08;;;6.10;99.90;;;;;;4994221;28;20046;-82
2023/04/06 06:55:02;;;;;;;29.70;26.65;;;6.10;1.00;;;;;;4979148;28;20095;-82
2023/04/06 06:57:28;;;;;;;30.00;26.85;;;6.30;1.00;;;;;;4973240;28;20046;-80
2023/04/06 06:59:53;;;;;;;25.60;22.98;;;6.40;4.70;;;;;;4966731;28;20034;-82
2023/04/06 07:02:19;;;;;;;24.60;22.45;;;6.50;99.90;;;;;;4984793;28;20184;-81
2023/04/06 07:04:48;;;;;;;48.95;44.40;;;6.60;99.90;;;;;;4976705;28;20347;-81
2023/04/06 07:07:14;;;;;;;48.70;40.65;;;6.70;58.60;;;;;;4968052;28;20096;-81
2023/04/06 07:09:40;;;;;;;38.40;34.63;;;6.90;99.90;;;;;;4967897;28;20443;-82
2023/04/06 07:12:05;;;;;;;37.55;34.10;;;6.90;99.90;;;;;;4985075;28;20042;-81
2023/04/06 07:14:31;;;;;;;41.22;37.08;;;7.20;1.00;;;;;;4990753;28;20041;-81
2023/04/06 07:16:57;;;;;;;44.88;40.17;;;7.10;99.90;;;;;;4988364;28;20077;-82
2023/04/06 07:19:23;;;;;;;47.47;42.83;;;7.20;99.90;;;;;;4963846;28;20052;-82
2023/04/06 07:21:49;;;;;;;52.78;47.80;;;7.30;1.00;;;;;;4969152;28;20030;-82
2023/04/06 07:24:15;;;;;;;35.05;31.30;;;8.90;99.90;;;;;;4971546;28;20045;-82
2023/04/06 07:26:41;;;;;;;38.90;35.10;;;9.00;61.20;;;;;;4986806;28;20034;-81
2023/04/06 07:29:07;;;;;;;26.05;21.52;;;7.80;99.90;;;;;;4978922;28;20073;-83
2023/04/06 07:31:33;;;;;;;46.20;40.55;;;7.90;99.90;;;;;;4964452;28;20065;-82
2023/04/06 07:33:58;;;;;;;36.30;28.15;;;8.00;1.00;;;;;;4958862;28;20046;-82
2023/04/06 07:36:24;;;;;;;31.10;27.75;;;8.00;99.90;;;;;;4971927;28;20080;-82
2023/04/06 07:38:50;;;;;;;37.30;33.28;;;8.00;99.90;;;;;;4985607;28;20050;-83
2023/04/06 07:41:15;;;;;;;37.72;33.67;;;8.00;96.10;;;;;;4987736;28;20048;-82
2023/04/06 07:43:41;;;;;;;34.38;25.98;;;8.00;1.00;;;;;;4983291;28;20553;-81
2023/04/06 07:46:06;;;;;;;49.30;42.53;;;8.00;1.00;;;;;;4968194;28;20069;-81
2023/04/06 07:48:32;;;;;;;47.85;42.95;;;8.00;1.00;;;;;;4970620;28;20482;-81
2023/04/06 07:51:06;;;;;;;48.10;42.72;;;8.00;99.90;;;;;;4985337;28;20124;-81
2023/04/06 07:53:32;;;;;;;58.30;52.22;;;8.10;99.90;;;;;;4975398;28;20040;-81
2023/04/06 07:55:58;;;;;;;50.40;40.72;;;8.10;99.90;;;;;;4986227;28;20038;-81
2023/04/06 07:58:24;;;;;;;41.03;36.25;;;8.10;99.90;;;;;;4971980;28;20041;-81
2023/04/06 08:00:49;;;;;;;72.22;64.75;;;8.10;99.90;;;;;;4984400;28;20042;-80
2023/04/06 08:03:16;;;;;;;48.65;43.63;;;8.30;99.90;;;;;;4988618;28;20528;-80
2023/04/06 08:05:42;;;;;;;44.08;39.55;;;8.40;99.90;;;;;;4983386;28;20463;-82
2023/04/06 08:08:08;;;;;;;51.80;44.63;;;8.40;99.90;;;;;;4989333;28;20041;-81
2023/04/06 08:10:34;;;;;;;51.05;42.35;;;8.40;99.90;;;;;;4990175;28;20095;-82
2023/04/06 08:13:00;;;;;;;58.45;47.85;;;8.60;99.90;;;;;;4967609;28;20140;-82
2023/04/06 08:15:26;;;;;;;70.53;63.42;;;8.60;99.90;;;;;;4969906;28;20535;-82
2023/04/06 08:17:52;;;;;;;75.85;67.93;;;8.70;84.60;;;;;;4980055;28;20033;-82
2023/04/06 08:20:17;;;;;;;45.15;40.47;;;8.80;93.00;;;;;;4985825;28;20529;-82
2023/04/06 08:22:43;;;;;;;84.53;75.47;;;8.80;25.80;;;;;;4973129;28;20037;-81
2023/04/06 08:25:09;;;;;;;74.22;65.45;;;8.80;1.00;;;;;;4967024;28;20099;-82
2023/04/06 08:27:34;;;;;;;55.53;49.47;;;8.80;1.00;;;;;;4987290;28;20494;-82
2023/04/06 08:30:00;;;;;;;71.90;64.47;;;8.90;1.00;;;;;;4983350;28;20038;-82
2023/04/06 08:32:25;;;;;;;38.88;31.42;;;8.90;1.00;;;;;;4979427;28;20122;-86
2023/04/06 08:34:54;;;;;;;52.65;46.65;;;9.00;1.00;;;;;;4977245;28;20168;-86
2023/04/06 08:37:19;;;;;;;58.88;50.92;;;10.20;1.00;;;;;;4962327;28;20453;-86
2023/04/06 08:39:45;;;;;;;60.45;53.90;;;9.20;1.00;;;;;;4976025;28;20082;-85
2023/04/06 08:42:18;;;;;;;59.63;53.20;;;9.20;1.00;;;;;;4969639;28;20523;-85
2023/04/06 08:44:45;;;;;;;64.13;57.45;;;9.10;99.90;;;;;;4981051;28;20046;-86
2023/04/06 08:47:11;;;;;;;32.65;25.42;;;9.10;99.90;;;;;;4981615;28;20050;-86
2023/04/06 08:49:38;;;;;;;54.90;49.40;;;9.00;99.90;;;;;;4968395;28;20042;-85
2023/04/06 08:52:07;;;;;;;84.00;75.20;;;9.10;99.90;;;;;;4980847;28;20057;-85
2023/04/06 08:54:34;;;;;;;50.17;44.85;;;9.00;99.90;;;;;;4977940;28;20038;-85
2023/04/06 08:57:00;;;;;;;54.95;49.15;;;9.10;99.90;;;;;;4984092;28;20565;-86
2023/04/06 08:59:27;;;;;;;60.80;53.22;;;9.10;99.90;;;;;;5002018;28;20512;-85
2023/04/06 09:01:54;;;;;;;52.95;45.20;;;10.50;99.90;;;;;;4963495;28;20034;-85
2023/04/06 09:04:20;;;;;;;59.60;48.15;;;9.20;99.90;;;;;;4971327;28;20057;-85
2023/04/06 09:06:45;;;;;;;64.35;57.63;;;9.60;99.90;;;;;;4958635;28;20071;-85
2023/04/06 09:09:11;;;;;;;55.78;47.08;;;9.10;99.90;;;;;;4964892;28;20043;-85
2023/04/06 09:11:51;;;;;;;63.10;56.83;;;9.20;99.90;;;;;;4981458;28;20026;-85
2023/04/06 09:14:32;;;;;;;83.78;74.90;;;9.20;99.90;;;;;;4979851;28;20426;-86
2023/04/06 09:16:58;;;;;;;70.20;62.78;;;9.20;99.90;;;;;;4987015;28;20035;-85
2023/04/06 09:19:23;;;;;;;65.55;58.63;;;9.20;99.90;;;;;;4973062;28;20073;-85
2023/04/06 09:21:49;;;;;;;49.03;43.78;;;10.60;99.90;;;;;;4982987;28;20131;-86
2023/04/06 09:24:17;;;;;;;56.28;49.15;;;9.20;99.90;;;;;;4964769;28;20034;-86
2023/04/06 09:26:46;;;;;;;50.80;45.63;;;9.40;99.90;;;;;;4973836;28;20042;-85
2023/04/06 09:29:23;;;;;;;59.47;51.97;;;9.50;99.90;;;;;;4983121;28;20027;-86
2023/04/06 09:31:48;;;;;;;;;;;9.50;99.90;;;;;;4970425;28;20042;-86
2023/04/06 09:34:22;;;;;;;72.00;64.37;;;9.70;99.90;;;;;;4972391;28;20359;-85
2023/04/06 09:36:48;;;;;;;68.25;60.95;;;9.60;99.90;;;;;;4985720;28;20038;-86
2023/04/06 09:39:14;;;;;;;59.95;53.58;;;9.60;99.90;;;;;;4967363;28;20088;-87
2023/04/06 09:41:40;;;;;;;49.17;42.75;;;9.80;99.90;;;;;;4959684;28;20533;-86
2023/04/06 09:44:09;;;;;;;41.92;31.17;;;9.70;99.90;;;;;;4968470;28;20169;-86
2023/04/06 09:46:40;;;;;;;47.72;42.72;;;9.80;99.90;;;;;;4976453;28;20532;-85
2023/04/06 09:49:07;;;;;;;46.80;41.75;;;9.90;99.90;;;;;;4965120;28;20073;-85
2023/04/06 09:51:51;;;;;;;44.65;32.45;;;10.00;99.90;;;;;;4971096;28;20482;-87
2023/04/06 09:54:21;;;;;;;40.03;35.67;;;10.00;99.90;;;;;;4981654;28;20517;-85
2023/04/06 09:56:50;;;;;;;52.45;45.75;;;10.00;99.90;;;;;;4975472;28;20045;-86
2023/04/06 09:59:31;;;;;;;43.65;38.08;;;10.10;99.90;;;;;;4985218;28;20118;-86
2023/04/06 10:01:59;;;;;;;56.75;49.50;;;10.00;99.90;;;;;;4981296;28;20532;-86
2023/04/06 10:04:58;;;;;;;55.53;47.15;;;9.90;99.90;;;;;;4985435;28;20037;-85
2023/04/06 10:07:26;;;;;;;58.97;52.15;;;10.00;99.90;;;;;;4967056;28;20446;-87
2023/04/06 10:09:54;;;;;;;56.88;50.10;;;10.10;99.90;;;;;;4985686;28;20069;-87
2023/04/06 10:12:20;;;;;;;40.38;33.70;;;10.20;99.90;;;;;;4992711;28;20493;-89
2023/04/06 10:14:46;;;;;;;36.78;29.80;;;10.30;99.90;;;;;;4981537;28;20049;-89
2023/04/06 10:17:12;;;;;;;53.40;43.53;;;10.40;99.90;;;;;;4961230;28;20088;-86
2023/04/06 10:19:52;;;;;;;47.55;41.85;;;10.50;99.90;;;;;;4963288;28;20518;-88
2023/04/06 10:22:44;;;;;;;47.83;40.35;;;10.50;99.90;;;;;;4970546;28;20050;-86
2023/04/06 10:25:09;;;;;;;44.25;36.92;;;10.50;99.90;;;;;;4974604;28;20496;-86
2023/04/06 10:27:35;;;;;;;43.35;35.05;;;10.50;99.90;;;;;;4993453;28;20259;-87
2023/04/06 10:30:06;;;;;;;52.13;46.75;;;10.50;99.90;;;;;;4967494;28;20057;-86
2023/04/06 10:32:37;;;;;;;60.90;49.75;;;10.60;99.90;;;;;;4980516;28;20092;-87
2023/04/06 10:35:10;;;;;;;72.50;61.90;;;10.70;99.90;;;;;;4977678;28;20045;-86
2023/04/06 10:37:53;;;;;;;60.53;50.70;;;10.70;99.90;;;;;;4976611;28;20483;-86
2023/04/06 10:40:26;;;;;;;70.22;60.00;;;10.60;99.90;;;;;;4986669;28;20133;-88
2023/04/06 10:42:53;;;;;;;54.13;46.22;;;10.60;99.90;;;;;;4968727;28;20046;-87
2023/04/06 10:45:26;;;;;;;49.78;41.33;;;10.70;99.90;;;;;;4971390;28;20034;-87
2023/04/06 10:47:55;;;;;;;41.10;32.00;;;10.70;99.90;;;;;;4987734;28;20038;-86
2023/04/06 10:50:22;;;;;;;56.10;50.20;;;10.90;99.90;;;;;;4963311;28;20038;-86
2023/04/06 10:53:02;;;;;;;49.25;40.72;;;10.90;99.90;;;;;;4977815;28;20048;-86
2023/04/06 10:55:28;;;;;;;51.70;44.40;;;11.00;99.90;;;;;;4972619;28;20158;-86
2023/04/06 10:57:54;;;;;;;53.08;46.47;;;11.00;99.90;;;;;;4987592;28;20046;-86
2023/04/06 11:00:20;;;;;;;53.83;45.58;;;10.90;99.90;;;;;;4984089;28;20045;-86
2023/04/06 11:02:46;;;;;;;69.85;58.50;;;11.00;99.90;;;;;;4987985;28;20074;-86
2023/04/06 11:05:13;;;;;;;52.38;41.03;;;10.90;99.90;;;;;;4984478;28;20034;-86
2023/04/06 11:07:39;;;;;;;64.90;57.78;;;10.90;99.90;;;;;;4961276;28;20067;-87
2023/04/06 11:10:06;;;;;;;58.75;47.47;;;11.20;99.90;;;;;;4992190;28;20060;-87
2023/04/06 11:12:32;;;;;;;44.00;35.15;;;11.00;99.90;;;;;;4980928;28;20041;-86
2023/04/06 11:15:04;;;;;;;66.47;54.08;;;11.00;99.90;;;;;;4991681;28;20053;-86
2023/04/06 11:17:31;;;;;;;58.15;46.03;;;12.10;99.90;;;;;;4981734;28;20050;-86
2023/04/06 11:19:58;;;;;;;59.25;49.70;;;11.10;99.90;;;;;;4966906;28;20045;-85
2023/04/06 11:22:24;;;;;;;61.80;50.70;;;11.50;99.90;;;;;;4972778;28;20494;-87
2023/04/06 11:24:50;;;;;;;73.32;57.88;;;11.10;99.90;;;;;;4968514;28;20034;-87
2023/04/06 11:27:16;;;;;;;76.55;66.68;;;11.10;99.90;;;;;;4991738;28;20940;-86
2023/04/06 11:29:43;;;;;;;79.90;69.88;;;11.50;99.90;;;;;;4983668;28;20042;-87
2023/04/06 11:32:09;;;;;;;54.35;48.63;;;11.30;99.90;;;;;;4969000;28;20723;-87
2023/04/06 11:34:40;;;;;;;62.63;55.33;;;11.90;99.90;;;;;;4985309;28;20049;-86
2023/04/06 11:37:11;;;;;;;61.40;50.17;;;11.40;99.90;;;;;;4982272;28;20065;-85
2023/04/06 11:40:07;;;;;;;60.42;51.83;;;11.40;99.90;;;;;;4969587;28;20133;-86
2023/04/06 11:42:35;;;;;;;75.07;65.30;;;11.30;99.90;;;;;;4984084;28;20054;-85
2023/04/06 11:45:01;;;;;;;59.50;51.08;;;12.60;99.90;;;;;;4967105;28;20062;-85
2023/04/06 11:47:33;;;;;;;86.88;77.60;;;11.80;99.90;;;;;;4982440;28;20081;-86
2023/04/06 11:50:10;;;;;;;68.25;54.78;;;12.60;99.90;;;;;;4989992;28;20124;-86
2023/04/06 11:52:37;;;;;;;55.40;49.80;;;11.40;99.90;;;;;;4968703;28;20049;-86
2023/04/06 11:55:15;;;;;;;55.88;49.88;;;11.30;99.90;;;;;;4971994;28;20095;-87
2023/04/06 11:57:41;;;;;;;61.55;52.83;;;11.40;99.90;;;;;;4988113;28;20041;-86
2023/04/06 12:00:09;;;;;;;54.60;48.60;;;11.30;99.90;;;;;;4980577;28;20433;-87
2023/04/06 12:02:36;;;;;;;55.13;44.17;;;11.30;99.90;;;;;;4963644;28;20141;-87
2023/04/06 12:05:03;;;;;;;71.88;63.03;;;11.20;99.90;;;;;;4986675;28;20038;-86
2023/04/06 12:07:30;;;;;;;83.88;62.08;;;11.20;1.00;;;;;;4969025;28;20037;-87
2023/04/06 12:09:55;;;;;;;121.50;105.85;;;11.00;1.00;;;;;;4978769;28;20156;-86
2023/04/06 12:12:24;;;;;;;92.70;82.72;;;10.60;1.00;;;;;;4973148;28;20477;-86
2023/04/06 12:14:50;;;;;;;59.72;53.33;;;10.80;15.60;;;;;;4969636;28;20129;-86
2023/04/06 12:17:15;;;;;;;101.22;75.50;;;10.60;99.90;;;;;;4969618;28;20557;-87
2023/04/06 12:19:41;;;;;;;79.35;70.72;;;10.60;99.90;;;;;;4987611;28;20073;-87
2023/04/06 12:22:06;;;;;;;103.50;83.75;;;10.50;99.90;;;;;;4989701;28;20053;-88
2023/04/06 12:24:32;;;;;;;125.45;102.28;;;10.30;99.90;;;;;;4985949;28;20045;-88
2023/04/06 12:26:57;;;;;;;118.10;94.57;;;10.20;1.00;;;;;;4982709;28;20464;-87
2023/04/06 12:29:24;;;;;;;133.18;104.85;;;10.20;1.00;;;;;;4984022;28;20034;-87
2023/04/06 12:31:50;;;;;;;182.43;135.63;;;11.50;1.00;;;;;;4967135;28;20053;-87
2023/04/06 12:34:19;;;;;;;128.02;100.72;;;11.50;88.60;;;;;;4983072;28;20489;-87